00AK weather

Lowell Field
Anchor Point, Alaska, United States

Public forecast

Using degrees Fahrenheit for public forecast. Weather courtesy of forecast.io.

METAR (pilot weather report)

Closest report is Homer Airport, 19.4 nm (35.9 km) SSE. Retrieved 2019/09/18 07:53 UTC (9 minutes ago):

PAHO 180753Z AUTO VRB06G17KT 5SM +RA BKN042 OVC049 12/09 A2939 RMK AO2 SLP951 P0009 T01220094 TSNO

TAF (pilot weather forecast)

Closest forecast is Homer Airport, 19.4 nm (35.9 km) SSE. Retrieved 2019/09/18 06:42 UTC (1 hour ago):

TAF PAHO 180540Z 1806/1906 VRB05KT 5SM -RA BR SCT025 OVC040 TEMPO 1806/1809 3SM -RA BR BKN025 OVC040 FM180900 15012G20KT 3SM -RA BR OVC015 FM181200 22012G20KT 6SM -SHRA BR OVC015 FM181800 23012G20KT P6SM -SHRA SCT015 OVC025